Terminal Aerodrome Forecast
Issued by NWS

Home | Current Version | Previous Version | Text Only | Print | Product List | Glossary On
Versions: 1 2 3 4 5 6 7 8 9 10 11 12 13 14 15 16 17
000
FTUS41 KBTV 031134
TAFRUT
TAF
KRUT 031134Z 0312/0412 32003KT P6SM OVC005
     FM031330 VRB03KT P6SM SCT007 OVC015
      TEMPO 0314/0317 SCT007 BKN025
     FM040000 12004KT P6SM SCT050
     FM040100 13005KT P6SM BKN045
     FM040900 13005KT P6SM BKN020
      AMD LTD TO CLD VIS AND WIND=

USA.gov is the U.S. government's official web portal to all federal, state and local government web resources and services.